Time;durP1;ratioP1;P1;durP2;ratioP2;P2;SDS_P1;SDS_P2;PMS_P1;PMS_P2;Temp;Humidity;BMP_temperature;BMP_pressure;BME280_temperature;BME280_humidity;BME280_pressure;Samples;Min_cycle;Max_cycle;Signal;HPM_P1;HPM_P2
2022/06/20 00:00:48;;;;;;;2.22;2.13;;;22.50;90.00;;;;;;5092530;28;20310;-89
2022/06/20 00:03:22;;;;;;;2.40;2.20;;;22.50;89.80;;;;;;5092911;28;20228;-89
2022/06/20 00:05:51;;;;;;;2.65;2.45;;;22.40;89.90;;;;;;5092655;28;20283;-89
2022/06/20 00:08:21;;;;;;;3.78;2.58;;;22.40;90.00;;;;;;5092274;28;20246;-89
2022/06/20 00:10:50;;;;;;;2.65;1.95;;;22.40;90.10;;;;;;5092306;28;20295;-89
2022/06/20 00:13:27;;;;;;;7.90;2.50;;;22.40;90.20;;;;;;5092639;28;20196;-89
2022/06/20 00:15:57;;;;;;;1.95;1.85;;;22.30;90.10;;;;;;5092615;28;20208;-92
2022/06/20 00:18:25;;;;;;;15.93;2.15;;;22.30;90.30;;;;;;5092948;28;20204;-92
2022/06/20 00:20:54;;;;;;;2.30;2.03;;;22.30;90.30;;;;;;5092331;28;20257;-92
2022/06/20 00:23:24;;;;;;;4.43;2.22;;;22.30;90.50;;;;;;5094706;28;20212;-90
2022/06/20 00:25:52;;;;;;;2.00;1.90;;;22.30;90.50;;;;;;5096407;28;20200;-90
2022/06/20 00:28:20;;;;;;;2.35;2.00;;;22.20;90.60;;;;;;5096104;28;20205;-89
2022/06/20 00:30:49;;;;;;;2.78;2.40;;;22.20;90.60;;;;;;5096521;28;20269;-89
2022/06/20 00:33:17;;;;;;;1.95;1.80;;;22.20;90.90;;;;;;5098056;28;20215;-88
2022/06/20 00:35:45;;;;;;;3.10;2.20;;;22.20;90.90;;;;;;5098216;28;20200;-89
2022/06/20 00:38:18;;;;;;;3.30;2.35;;;22.20;91.30;;;;;;5098066;28;20204;-89
2022/06/20 00:40:51;;;;;;;2.53;2.33;;;22.10;91.10;;;;;;5098471;28;20253;-91
2022/06/20 00:43:23;;;;;;;2.40;2.20;;;22.10;91.30;;;;;;5099440;28;20228;-90
2022/06/20 00:45:54;;;;;;;2.40;2.20;;;22.10;91.40;;;;;;5100538;28;20212;-90
2022/06/20 00:48:27;;;;;;;2.03;1.92;;;22.00;91.60;;;;;;5098592;28;20234;-89
2022/06/20 00:51:02;;;;;;;2.33;2.13;;;22.00;91.90;;;;;;5096559;28;20232;-91
2022/06/20 00:53:38;;;;;;;2.90;2.47;;;22.00;92.00;;;;;;5097723;28;20206;-91
2022/06/20 00:56:16;;;;;;;2.22;2.10;;;21.90;92.10;;;;;;5099984;28;20208;-88
2022/06/20 00:58:49;;;;;;;2.67;2.30;;;21.90;92.50;;;;;;5098509;28;20232;-91
2022/06/20 01:01:24;;;;;;;2.53;2.33;;;21.90;92.30;;;;;;5099092;28;20250;-90
2022/06/20 01:04:04;;;;;;;2.28;2.05;;;21.90;92.40;;;;;;5098426;28;20228;-90
2022/06/20 01:06:43;;;;;;;1.98;1.70;;;21.90;92.70;;;;;;5098224;28;20200;-89
2022/06/20 01:09:16;;;;;;;4.18;2.53;;;21.80;92.80;;;;;;5100552;28;20229;-90
2022/06/20 01:11:51;;;;;;;1.88;1.73;;;21.80;93.50;;;;;;5096777;28;20211;-91
2022/06/20 01:14:22;;;;;;;2.40;2.20;;;21.70;93.50;;;;;;5095966;28;20227;-91
2022/06/20 01:16:53;;;;;;;2.58;2.38;;;21.70;93.90;;;;;;5095638;28;20242;-91
2022/06/20 01:19:36;;;;;;;1.98;1.88;;;21.70;94.20;;;;;;5095297;28;20224;-91
2022/06/20 01:22:13;;;;;;;2.08;1.98;;;21.70;94.50;;;;;;5095446;28;20291;-91
2022/06/20 01:24:50;;;;;;;2.88;2.22;;;21.70;95.10;;;;;;5095383;28;20220;-90
2022/06/20 01:27:24;;;;;;;2.00;1.90;;;21.60;95.70;;;;;;5095729;28;20220;-91
2022/06/20 01:29:53;;;;;;;2.42;2.22;;;21.60;95.80;;;;;;5095095;28;20220;-91
2022/06/20 01:32:21;;;;;;;2.17;2.08;;;21.60;96.30;;;;;;5095069;28;20232;-91
2022/06/20 01:34:51;;;;;;;2.28;2.08;;;21.50;96.50;;;;;;5094446;28;20251;-91
2022/06/20 01:37:26;;;;;;;2.20;2.00;;;21.50;97.00;;;;;;5095277;28;20257;-91
2022/06/20 01:39:57;;;;;;;3.72;2.25;;;21.50;97.50;;;;;;5095280;28;20224;-91
2022/06/20 01:42:28;;;;;;;1.70;1.60;;;21.50;98.20;;;;;;5095009;28;20235;-91
2022/06/20 01:45:02;;;;;;;2.42;2.22;;;21.40;98.80;;;;;;5094956;28;20278;-91
2022/06/20 01:47:31;;;;;;;2.53;2.28;;;21.50;99.40;;;;;;5094903;28;20230;-91
2022/06/20 01:50:04;;;;;;;2.70;2.00;;;21.40;99.60;;;;;;5095006;28;20228;-91
2022/06/20 01:52:36;;;;;;;22.77;2.63;;;21.40;99.90;;;;;;5094662;28;20231;-91
2022/06/20 01:55:08;;;;;;;3.20;2.40;;;21.30;99.90;;;;;;5094380;28;20233;-91
2022/06/20 01:57:41;;;;;;;2.17;1.90;;;21.30;99.90;;;;;;5094867;28;20323;-91
2022/06/20 02:00:12;;;;;;;2.65;2.45;;;21.30;99.90;;;;;;5094300;28;20271;-91
2022/06/20 02:02:43;;;;;;;1.67;1.58;;;21.30;99.90;;;;;;5094790;28;20208;-91
2022/06/20 02:05:15;;;;;;;2.60;2.40;;;21.20;99.90;;;;;;5094579;28;20220;-91
2022/06/20 02:07:44;;;;;;;2.20;2.10;;;21.20;99.90;;;;;;5094503;28;20212;-91
2022/06/20 02:10:18;;;;;;;2.45;2.25;;;21.20;99.90;;;;;;5094040;28;20273;-91
2022/06/20 02:12:50;;;;;;;3.88;2.33;;;21.20;99.90;;;;;;5094453;28;20223;-91
2022/06/20 02:15:20;;;;;;;2.50;2.30;;;21.10;99.90;;;;;;5094143;28;20231;-91
2022/06/20 02:17:51;;;;;;;2.20;2.10;;;21.10;99.90;;;;;;5094377;28;20204;-91
2022/06/20 02:20:22;;;;;;;2.45;2.13;;;21.10;99.90;;;;;;5094459;28;20251;-91
2022/06/20 02:22:52;;;;;;;2.25;2.05;;;21.10;99.90;;;;;;5094638;28;20208;-91
2022/06/20 02:25:25;;;;;;;2.60;2.30;;;21.00;99.90;;;;;;5094060;28;20288;-91
2022/06/20 02:28:00;;;;;;;2.85;2.65;;;21.10;99.90;;;;;;5094117;28;20284;-91
2022/06/20 02:30:29;;;;;;;1.60;1.50;;;21.00;99.90;;;;;;5094031;28;20263;-91
2022/06/20 02:33:03;;;;;;;3.70;2.40;;;21.00;99.90;;;;;;5094297;28;20237;-91
2022/06/20 02:35:33;;;;;;;2.65;2.05;;;20.90;99.90;;;;;;5094107;28;20204;-91
2022/06/20 02:38:01;;;;;;;2.33;2.15;;;20.90;99.90;;;;;;5093795;28;20235;-91
2022/06/20 02:40:31;;;;;;;2.20;2.10;;;20.90;99.90;;;;;;5093723;28;20240;-91
2022/06/20 02:43:05;;;;;;;2.70;2.50;;;20.90;99.90;;;;;;5093850;28;20200;-91
2022/06/20 02:45:35;;;;;;;2.58;2.22;;;20.80;99.90;;;;;;5093022;28;20230;-91
2022/06/20 02:48:06;;;;;;;2.60;2.40;;;20.80;99.90;;;;;;5093206;28;20282;-91
2022/06/20 02:50:38;;;;;;;3.05;2.85;;;20.80;99.90;;;;;;5093285;28;20224;-91
2022/06/20 02:53:10;;;;;;;3.83;2.70;;;20.80;99.90;;;;;;5093437;28;20272;-91
2022/06/20 02:55:39;;;;;;;2.72;2.45;;;20.70;99.90;;;;;;5093445;28;20292;-91
2022/06/20 02:58:14;;;;;;;2.85;2.63;;;20.70;99.90;;;;;;5093360;28;20264;-91
2022/06/20 03:00:47;;;;;;;3.20;2.90;;;20.70;99.90;;;;;;5093409;28;20228;-91
2022/06/20 03:03:21;;;;;;;3.50;3.10;;;20.70;99.90;;;;;;5093524;28;20232;-91
2022/06/20 03:05:50;;;;;;;3.42;3.08;;;20.70;99.90;;;;;;5093061;28;20224;-91
2022/06/20 03:08:18;;;;;;;3.22;2.75;;;20.60;99.90;;;;;;5093132;28;20235;-91
2022/06/20 03:10:50;;;;;;;2.38;2.28;;;20.60;99.90;;;;;;5093263;28;20288;-91
2022/06/20 03:13:21;;;;;;;2.97;2.67;;;20.60;99.90;;;;;;5093618;28;20224;-91
2022/06/20 03:15:51;;;;;;;5.45;2.95;;;20.60;99.90;;;;;;5093368;28;20260;-91
2022/06/20 03:18:22;;;;;;;3.95;2.85;;;20.50;99.90;;;;;;5093022;28;20200;-91
2022/06/20 03:20:51;;;;;;;2.95;2.67;;;20.50;99.90;;;;;;5092870;28;20208;-91
2022/06/20 03:23:23;;;;;;;3.03;2.72;;;20.50;99.90;;;;;;5093158;28;20235;-91
2022/06/20 03:25:54;;;;;;;2.45;2.35;;;20.50;99.90;;;;;;5093268;28;20284;-91
2022/06/20 03:28:25;;;;;;;2.97;2.78;;;20.50;99.90;;;;;;5093313;28;20214;-91
2022/06/20 03:31:04;;;;;;;3.28;2.97;;;20.50;99.90;;;;;;5092795;28;20203;-91
2022/06/20 03:33:33;;;;;;;2.85;2.42;;;20.50;99.90;;;;;;5093431;28;20204;-91
2022/06/20 03:36:07;;;;;;;3.00;2.80;;;20.50;99.90;;;;;;5092996;28;20227;-91
2022/06/20 03:38:36;;;;;;;5.85;2.58;;;20.50;99.90;;;;;;5092817;28;20307;-91
2022/06/20 03:41:06;;;;;;;4.32;2.83;;;20.50;99.90;;;;;;5092903;28;20204;-91
2022/06/20 03:43:37;;;;;;;3.03;2.72;;;20.40;99.90;;;;;;5092780;28;20196;-91
2022/06/20 03:46:10;;;;;;;3.65;2.88;;;20.40;99.90;;;;;;5093295;28;20247;-91
2022/06/20 03:48:41;;;;;;;3.38;3.08;;;20.40;99.90;;;;;;5092708;28;20228;-91
2022/06/20 03:51:15;;;;;;;3.13;2.80;;;20.30;99.90;;;;;;5092654;28;20204;-91
2022/06/20 03:53:48;;;;;;;7.10;2.78;;;20.30;99.90;;;;;;5093077;28;20204;-91
2022/06/20 03:56:26;;;;;;;3.10;2.80;;;20.40;99.90;;;;;;5092941;28;20203;-91
2022/06/20 03:59:02;;;;;;;2.78;2.58;;;20.30;99.90;;;;;;5095797;28;20255;-90
2022/06/20 04:01:36;;;;;;;3.25;3.05;;;20.40;99.90;;;;;;5096881;28;20223;-91
2022/06/20 04:04:11;;;;;;;4.38;3.15;;;20.30;99.90;;;;;;5097190;28;20259;-91
2022/06/20 04:06:44;;;;;;;3.10;2.80;;;20.40;99.90;;;;;;5096902;28;20223;-89
2022/06/20 04:12:10;;;;;;;3.40;3.10;;;20.40;99.90;;;;;;5096436;28;20295;-91
2022/06/20 04:14:46;;;;;;;3.63;3.33;;;20.40;99.90;;;;;;5097023;28;20203;-90
2022/06/20 04:20:18;;;;;;;3.05;2.80;;;20.50;99.90;;;;;;5096655;28;20285;-90
2022/06/20 04:22:49;;;;;;;2.95;2.55;;;20.50;99.90;;;;;;5096559;28;20212;-91
2022/06/20 04:25:26;;;;;;;3.40;3.13;;;20.50;99.90;;;;;;5096436;28;20212;-91
2022/06/20 04:28:00;;;;;;;3.67;3.35;;;20.50;99.90;;;;;;5096554;28;20264;-91
2022/06/20 04:30:37;;;;;;;2.90;2.70;;;20.50;99.90;;;;;;5096425;28;20251;-91
2022/06/20 04:33:12;;;;;;;3.10;2.80;;;20.50;99.90;;;;;;5097107;28;20222;-91
2022/06/20 04:35:45;;;;;;;2.67;2.47;;;20.60;99.90;;;;;;5096946;28;20207;-91
2022/06/20 04:38:20;;;;;;;3.25;2.95;;;20.60;99.90;;;;;;5096133;28;20291;-91
2022/06/20 04:40:56;;;;;;;3.70;2.90;;;20.60;99.90;;;;;;5096160;28;20239;-91
2022/06/20 04:43:31;;;;;;;3.22;3.00;;;20.60;99.90;;;;;;5095962;28;20260;-91
2022/06/20 04:46:06;;;;;;;3.28;2.97;;;20.60;99.90;;;;;;5096269;28;20235;-90
2022/06/20 04:48:35;;;;;;;3.13;2.90;;;20.60;99.90;;;;;;5096332;28;20227;-90
2022/06/20 04:51:08;;;;;;;3.13;2.83;;;20.60;99.90;;;;;;5095914;28;20212;-90
2022/06/20 04:53:40;;;;;;;3.75;3.45;;;20.60;99.90;;;;;;5096174;28;20209;-90
2022/06/20 04:56:13;;;;;;;4.50;3.10;;;20.70;99.90;;;;;;5096033;28;20196;-90
2022/06/20 04:58:46;;;;;;;3.50;2.78;;;20.70;99.90;;;;;;5095457;28;20282;-90
2022/06/20 05:01:19;;;;;;;3.10;2.90;;;20.70;99.90;;;;;;5095818;28;20205;-90
2022/06/20 05:03:55;;;;;;;3.67;3.00;;;20.60;99.90;;;;;;5095964;28;20204;-90
2022/06/20 05:06:26;;;;;;;4.60;4.18;;;20.60;99.90;;;;;;5095494;28;20228;-90
2022/06/20 05:09:00;;;;;;;4.13;3.78;;;20.70;99.90;;;;;;5094536;28;20285;-91
2022/06/20 05:11:36;;;;;;;5.05;3.10;;;20.70;99.90;;;;;;5095707;28;20210;-90
2022/06/20 05:14:09;;;;;;;4.22;3.83;;;20.70;99.90;;;;;;5095894;28;20231;-90
2022/06/20 05:16:44;;;;;;;3.20;2.90;;;20.80;99.90;;;;;;5096085;28;20227;-91
2022/06/20 05:19:19;;;;;;;3.25;2.97;;;20.90;99.90;;;;;;5095458;28;20236;-90
2022/06/20 05:21:51;;;;;;;9.30;3.47;;;20.90;99.90;;;;;;5095495;28;20234;-90
2022/06/20 05:24:23;;;;;;;4.20;3.80;;;21.00;99.90;;;;;;5095611;28;20288;-90
2022/06/20 05:26:54;;;;;;;3.75;3.42;;;21.00;99.90;;;;;;5095474;28;20289;-90
2022/06/20 05:29:28;;;;;;;3.08;2.83;;;21.10;99.90;;;;;;5095348;28;20312;-90
2022/06/20 05:32:02;;;;;;;3.60;3.30;;;21.20;99.90;;;;;;5095041;28;20262;-90
2022/06/20 05:34:39;;;;;;;3.10;2.88;;;21.20;99.90;;;;;;5095328;28;20203;-90
2022/06/20 05:37:20;;;;;;;3.72;3.42;;;21.20;99.90;;;;;;5095207;28;20258;-91
2022/06/20 05:39:56;;;;;;;3.45;3.05;;;21.20;99.90;;;;;;5095153;28;20224;-91
2022/06/20 05:42:25;;;;;;;3.28;3.05;;;21.20;99.90;;;;;;5095329;28;20216;-90
2022/06/20 05:44:58;;;;;;;3.47;3.22;;;21.20;99.90;;;;;;5095203;28;20242;-91
2022/06/20 05:47:38;;;;;;;3.72;3.42;;;21.30;99.90;;;;;;5094734;28;20220;-91
2022/06/20 05:50:17;;;;;;;5.32;3.47;;;21.30;99.90;;;;;;5094622;28;20289;-91
2022/06/20 05:52:46;;;;;;;6.35;3.58;;;21.40;99.90;;;;;;5095009;28;20216;-90
2022/06/20 05:55:21;;;;;;;2.92;2.72;;;21.50;99.90;;;;;;5094870;28;20200;-91
2022/06/20 05:57:58;;;;;;;3.50;3.28;;;21.60;99.90;;;;;;5095486;28;20274;-90
2022/06/20 06:00:30;;;;;;;4.95;3.67;;;21.70;99.90;;;;;;5109843;28;20239;-75
2022/06/20 06:03:04;;;;;;;4.18;3.78;;;21.80;99.90;;;;;;5101369;28;20279;-76
2022/06/20 06:05:57;;;;;;;3.72;3.33;;;21.90;99.90;;;;;;5097788;28;20208;-76
2022/06/20 06:08:28;;;;;;;3.78;3.38;;;22.10;99.90;;;;;;5101092;28;20287;-76
2022/06/20 06:11:22;;;;;;;3.72;3.05;;;22.20;99.90;;;;;;5094798;28;20200;-75
2022/06/20 06:13:57;;;;;;;6.97;3.22;;;22.30;99.90;;;;;;5096301;28;20275;-75
2022/06/20 06:19:35;;;;;;;2.92;2.72;;;22.50;99.90;;;;;;5083974;28;20307;-75
2022/06/20 06:22:08;;;;;;;3.80;3.50;;;22.60;99.90;;;;;;5094639;28;20283;-76
2022/06/20 06:24:41;;;;;;;4.90;4.50;;;22.70;99.90;;;;;;5100532;28;20199;-75
2022/06/20 06:27:16;;;;;;;7.57;4.70;;;22.80;99.90;;;;;;5115056;28;20217;-75
2022/06/20 06:29:51;;;;;;;5.68;5.13;;;22.90;99.90;;;;;;5114636;28;20276;-75
2022/06/20 06:32:25;;;;;;;6.43;5.45;;;23.00;99.90;;;;;;5114688;28;20218;-76
2022/06/20 06:35:03;;;;;;;5.80;5.25;;;23.10;99.90;;;;;;5115230;28;20211;-75
2022/06/20 06:37:39;;;;;;;5.70;4.65;;;23.20;99.90;;;;;;5114799;27;20202;-76
2022/06/20 06:40:14;;;;;;;5.63;5.13;;;23.30;99.90;;;;;;5114754;28;20215;-76
2022/06/20 06:42:42;;;;;;;6.75;5.95;;;23.40;99.90;;;;;;5102114;28;20329;-75
2022/06/20 06:45:21;;;;;;;5.57;4.82;;;23.60;99.90;;;;;;5098577;28;20192;-74
2022/06/20 06:47:56;;;;;;;8.32;5.50;;;23.70;99.90;;;;;;5099788;28;20271;-75
2022/06/20 06:50:32;;;;;;;5.32;4.82;;;23.80;99.90;;;;;;5114505;28;20227;-75
2022/06/20 06:53:05;;;;;;;5.47;4.97;;;23.90;99.90;;;;;;5108342;28;20253;-75
2022/06/20 06:55:37;;;;;;;5.82;5.20;;;24.00;99.90;;;;;;5110264;28;20196;-75
2022/06/20 06:58:12;;;;;;;5.63;5.03;;;24.10;99.90;;;;;;5106760;28;20271;-75
2022/06/20 07:01:18;;;;;;;7.03;6.05;;;24.30;99.90;;;;;;5093936;28;20295;-75
2022/06/20 07:03:49;;;;;;;6.30;5.60;;;24.50;99.90;;;;;;5102958;28;20192;-75
2022/06/20 07:06:25;;;;;;;5.93;4.93;;;24.80;99.90;;;;;;5104641;28;20214;-76
2022/06/20 07:09:08;;;;;;;4.93;4.38;;;25.00;99.90;;;;;;5108948;28;20223;-76
2022/06/20 07:11:46;;;;;;;5.88;4.57;;;25.20;99.90;;;;;;5113531;28;20287;-84
2022/06/20 07:14:21;;;;;;;6.90;4.88;;;25.40;99.90;;;;;;5113725;28;20210;-84
2022/06/20 07:17:01;;;;;;;9.50;4.60;;;25.70;99.90;;;;;;5093712;28;20185;-84
2022/06/20 07:19:30;;;;;;;3.97;3.67;;;26.20;99.90;;;;;;5094065;28;20244;-83
2022/06/20 07:22:02;;;;;;;5.15;4.65;;;26.80;99.90;;;;;;5103595;28;20207;-84
2022/06/20 07:24:35;;;;;;;4.63;4.20;;;27.30;99.90;;;;;;5113996;28;20215;-84
2022/06/20 07:27:09;;;;;;;4.88;4.45;;;28.30;99.90;;;;;;5099408;28;20267;-84
2022/06/20 07:29:47;;;;;;;3.88;3.58;;;29.30;99.90;;;;;;5093488;28;20228;-84
2022/06/20 07:32:20;;;;;;;4.00;3.63;;;30.20;99.90;;;;;;5103019;28;20256;-84
2022/06/20 07:34:53;;;;;;;4.40;4.00;;;30.80;98.90;;;;;;5094013;28;20251;-84
2022/06/20 07:37:31;;;;;;;4.10;3.80;;;30.70;98.30;;;;;;5112213;28;20187;-84
2022/06/20 07:40:05;;;;;;;3.00;2.80;;;31.70;96.30;;;;;;5113862;28;20227;-82
2022/06/20 07:42:39;;;;;;;4.40;3.05;;;33.10;94.40;;;;;;5094007;28;20195;-84
2022/06/20 07:45:12;;;;;;;3.72;3.20;;;33.40;91.60;;;;;;5093430;28;20223;-83
2022/06/20 07:47:46;;;;;;;3.30;3.00;;;33.70;90.30;;;;;;5097359;28;20218;-84
2022/06/20 07:50:18;;;;;;;2.75;2.55;;;33.50;89.40;;;;;;5113479;28;20222;-84
2022/06/20 07:52:53;;;;;;;2.78;2.58;;;33.20;89.60;;;;;;5094359;28;20223;-84
2022/06/20 07:55:24;;;;;;;5.80;3.20;;;35.10;87.60;;;;;;5101808;28;20214;-84
2022/06/20 07:57:57;;;;;;;2.75;2.55;;;35.30;83.30;;;;;;5113475;28;20198;-84
2022/06/20 08:00:31;;;;;;;3.95;3.42;;;35.80;81.30;;;;;;5108185;28;20277;-78
2022/06/20 08:03:05;;;;;;;2.83;2.63;;;37.30;78.60;;;;;;5112744;28;20202;-84
2022/06/20 08:05:39;;;;;;;3.85;2.30;;;37.40;75.80;;;;;;5095644;28;20197;-88
2022/06/20 08:08:15;;;;;;;2.70;2.45;;;37.80;74.00;;;;;;5098058;28;20207;-88
2022/06/20 08:10:49;;;;;;;3.47;3.10;;;37.80;72.70;;;;;;5113180;28;20203;-88
2022/06/20 08:13:30;;;;;;;3.72;3.13;;;38.20;73.00;;;;;;5113649;28;20268;-88
2022/06/20 08:16:04;;;;;;;5.25;3.47;;;38.30;70.40;;;;;;5113785;28;20214;-76
2022/06/20 08:18:33;;;;;;;3.38;3.08;;;39.10;69.20;;;;;;5113627;28;20271;-76
2022/06/20 08:21:07;;;;;;;4.68;3.00;;;39.60;65.60;;;;;;5102097;28;20200;-76
2022/06/20 08:23:42;;;;;;;3.40;3.10;;;38.80;66.50;;;;;;5093026;28;20287;-87
2022/06/20 08:26:14;;;;;;;2.63;2.45;;;38.40;66.60;;;;;;5092895;28;20270;-88
2022/06/20 08:28:49;;;;;;;2.65;2.47;;;39.00;67.90;;;;;;5093080;28;20227;-85
2022/06/20 08:34:37;;;;;;;2.83;2.63;;;39.50;63.80;;;;;;5093312;28;20211;-92
2022/06/20 08:37:17;;;;;;;2.85;2.65;;;39.50;64.90;;;;;;5092688;28;20261;-92
2022/06/20 08:39:51;;;;;;;2.95;2.72;;;38.90;64.90;;;;;;5093266;28;20219;-93
2022/06/20 08:42:47;;;;;;;11.63;2.95;;;39.50;63.90;;;;;;5093433;28;20208;-92
2022/06/20 08:45:51;;;;;;;3.33;3.10;;;40.20;61.50;;;;;;5098286;28;20200;-94
2022/06/20 08:49:10;;;;;;;3.22;2.83;;;39.20;63.30;;;;;;5114925;28;20207;-93
2022/06/20 08:52:22;;;;;;;3.03;2.83;;;39.10;62.50;;;;;;5114551;28;20256;-94
2022/06/20 08:55:49;;;;;;;3.30;3.00;;;38.50;66.60;;;;;;5115729;28;20223;-93
2022/06/20 08:58:38;;;;;;;3.03;2.75;;;39.00;64.60;;;;;;5068574;28;20203;-94
2022/06/20 09:01:18;;;;;;;3.22;2.92;;;39.50;62.20;;;;;;5113182;28;20235;-91
2022/06/20 09:04:16;;;;;;;3.25;3.05;;;38.90;61.90;;;;;;5113363;28;20218;-91
2022/06/20 09:06:57;;;;;;;3.75;3.00;;;38.10;63.60;;;;;;5112975;28;20211;-91
2022/06/20 09:10:01;;;;;;;4.15;3.30;;;38.10;66.40;;;;;;5113291;28;20269;-91
2022/06/20 09:13:02;;;;;;;3.80;3.40;;;39.00;63.30;;;;;;5113350;28;20214;-91
2022/06/20 09:15:42;;;;;;;3.75;2.97;;;39.40;63.10;;;;;;5113018;28;20207;-92
2022/06/20 09:18:35;;;;;;;3.95;2.80;;;39.90;63.00;;;;;;5112970;28;20201;-92
2022/06/20 09:24:46;;;;;;;3.17;2.83;;;40.50;61.20;;;;;;5109006;28;20213;-92
2022/06/20 09:27:37;;;;;;;2.67;2.47;;;40.20;60.50;;;;;;5112401;28;20233;-92
2022/06/20 09:30:26;;;;;;;3.65;3.35;;;40.30;61.50;;;;;;5112052;28;20227;-93
2022/06/20 09:33:26;;;;;;;3.40;2.92;;;39.70;60.70;;;;;;5112255;28;20294;-91
2022/06/20 09:36:20;;;;;;;3.42;3.13;;;39.30;61.20;;;;;;5113300;28;20199;-91
2022/06/20 09:39:02;;;;;;;3.22;3.03;;;39.60;61.00;;;;;;5112722;28;20228;-92
2022/06/20 09:42:07;;;;;;;3.63;2.85;;;38.70;62.60;;;;;;5113197;28;20217;-92
2022/06/20 09:48:44;;;;;;;4.25;2.80;;;37.40;65.80;;;;;;5114295;28;20214;-92
2022/06/20 09:51:45;;;;;;;4.57;2.97;;;38.30;67.20;;;;;;5114758;28;20209;-92
2022/06/20 09:54:23;;;;;;;3.80;3.50;;;38.70;64.40;;;;;;5115354;28;20210;-92
2022/06/20 09:57:23;;;;;;;4.25;3.67;;;38.10;63.60;;;;;;5114255;28;20198;-92
2022/06/20 10:00:23;;;;;;;3.95;3.63;;;36.10;66.50;;;;;;5114555;28;20229;-91
2022/06/20 10:03:26;;;;;;;3.33;3.13;;;35.10;68.70;;;;;;5094439;28;20208;-91
2022/06/20 10:06:15;;;;;;;4.10;3.75;;;34.00;71.70;;;;;;5094216;28;20199;-92
2022/06/20 10:08:55;;;;;;;4.13;3.83;;;33.80;71.50;;;;;;5094145;28;20231;-91
2022/06/20 10:11:42;;;;;;;4.07;3.55;;;33.40;72.80;;;;;;5094236;28;20215;-92
2022/06/20 10:14:40;;;;;;;4.10;3.80;;;33.90;73.50;;;;;;5094482;28;20215;-91
2022/06/20 10:20:35;;;;;;;3.88;3.60;;;35.20;70.60;;;;;;5090774;28;20229;-92
2022/06/20 10:26:49;;;;;;;5.32;4.82;;;35.10;72.50;;;;;;5094173;28;20294;-92
2022/06/20 10:29:24;;;;;;;4.70;4.30;;;34.20;73.90;;;;;;5094116;28;20224;-92
2022/06/20 10:32:03;;;;;;;4.85;4.45;;;33.50;75.60;;;;;;5093837;28;20208;-92
2022/06/20 10:34:53;;;;;;;4.78;4.30;;;33.30;77.10;;;;;;5094159;28;20200;-92
2022/06/20 10:37:30;;;;;;;5.60;5.03;;;33.80;76.60;;;;;;5094287;28;20207;-92
2022/06/20 10:40:11;;;;;;;6.03;5.40;;;33.50;76.00;;;;;;5093780;28;20219;-92
2022/06/20 10:43:13;;;;;;;5.97;5.25;;;33.50;76.60;;;;;;5094628;28;20208;-93
2022/06/20 10:49:39;;;;;;;7.43;5.65;;;33.40;77.60;;;;;;5092973;28;20297;-92
2022/06/20 10:52:43;;;;;;;7.85;6.50;;;33.60;77.50;;;;;;5093425;28;20196;-92
2022/06/20 10:56:01;;;;;;;9.07;6.13;;;33.70;78.40;;;;;;5091754;28;20237;-90
2022/06/20 10:59:21;;;;;;;13.52;6.72;;;34.00;78.70;;;;;;5092050;28;20230;-91
2022/06/20 11:02:19;;;;;;;10.18;6.57;;;33.90;78.60;;;;;;5092862;28;20200;-90
2022/06/20 11:05:16;;;;;;;8.93;6.32;;;33.70;79.60;;;;;;5093663;28;20220;-92
2022/06/20 11:07:59;;;;;;;10.60;6.88;;;33.20;80.60;;;;;;5092957;28;20197;-92
2022/06/20 11:11:06;;;;;;;8.50;6.75;;;32.50;82.30;;;;;;5092963;28;20238;-93
2022/06/20 11:14:16;;;;;;;17.88;6.78;;;32.80;83.60;;;;;;5090663;28;20204;-93
2022/06/20 11:20:58;;;;;;;10.90;6.53;;;33.80;79.40;;;;;;5057712;22;20316;-93
2022/06/20 11:41:38;;;;;;;7.28;6.57;;;31.40;83.80;;;;;;5011596;28;20202;-92
2022/06/20 11:44:47;;;;;;;8.75;6.30;;;31.10;85.10;;;;;;4994631;28;20204;-92
2022/06/20 11:47:36;;;;;;;9.85;5.72;;;30.70;86.20;;;;;;5006361;28;20201;-92
2022/06/20 11:50:40;;;;;;;8.35;5.88;;;30.70;87.30;;;;;;5012600;28;20231;-92
2022/06/20 11:53:51;;;;;;;12.50;6.22;;;30.60;86.70;;;;;;5008618;28;20222;-92
2022/06/20 11:56:26;;;;;;;7.35;5.63;;;30.60;87.70;;;;;;5013486;28;20310;-92
2022/06/20 11:59:23;;;;;;;12.48;5.80;;;30.40;88.30;;;;;;5013027;28;20215;-93
2022/06/20 12:02:03;;;;;;;6.88;4.93;;;30.70;87.80;;;;;;5012759;28;20207;-92
2022/06/20 12:04:39;;;;;;;12.57;5.35;;;30.80;87.90;;;;;;5012452;28;20242;-92
2022/06/20 12:07:34;;;;;;;8.10;5.50;;;30.30;87.90;;;;;;5012870;28;20207;-92
2022/06/20 12:10:13;;;;;;;5.50;4.45;;;29.90;89.40;;;;;;5012878;28;20287;-92
2022/06/20 12:12:51;;;;;;;8.25;5.18;;;29.70;89.20;;;;;;5011117;28;20282;-92
2022/06/20 12:15:31;;;;;;;7.05;4.97;;;29.40;89.50;;;;;;5013475;28;20234;-91
2022/06/20 12:18:14;;;;;;;7.03;5.25;;;29.20;90.10;;;;;;5012860;28;20211;-92
2022/06/20 12:23:35;;;;;;;6.15;4.90;;;28.80;90.40;;;;;;5015979;28;20235;-92
2022/06/20 12:26:08;;;;;;;5.40;4.40;;;28.90;90.80;;;;;;5016777;28;20291;-92
2022/06/20 12:28:38;;;;;;;10.10;5.60;;;29.00;91.30;;;;;;5011110;28;20274;-93
2022/06/20 12:31:16;;;;;;;10.23;6.43;;;29.20;91.50;;;;;;5001318;28;20239;-92
2022/06/20 12:33:47;;;;;;;6.53;5.32;;;29.10;92.00;;;;;;4997219;28;20203;-92
2022/06/20 12:36:25;;;;;;;6.88;5.50;;;28.50;92.30;;;;;;4996880;28;20243;-92
2022/06/20 12:39:03;;;;;;;7.65;5.90;;;28.10;92.60;;;;;;5010813;28;20231;-93
2022/06/20 12:41:36;;;;;;;6.35;4.32;;;28.00;93.00;;;;;;5016506;28;20230;-92
2022/06/20 12:44:18;;;;;;;5.75;4.90;;;28.40;92.70;;;;;;5016538;28;20512;-92
2022/06/20 12:47:09;;;;;;;5.93;5.32;;;28.70;92.30;;;;;;5016740;28;20203;-92
2022/06/20 12:49:55;;;;;;;6.15;5.00;;;29.40;91.60;;;;;;5016570;28;20227;-93
2022/06/20 12:52:33;;;;;;;9.52;5.65;;;30.10;90.90;;;;;;5016772;28;20217;-92
2022/06/20 12:55:20;;;;;;;6.22;5.13;;;30.60;90.50;;;;;;5011677;28;20199;-92
2022/06/20 12:58:22;;;;;;;11.35;5.60;;;31.10;89.20;;;;;;5014694;28;20195;-93
2022/06/20 13:00:55;;;;;;;7.88;5.40;;;31.20;87.70;;;;;;5005127;28;20231;-92
2022/06/20 13:04:01;;;;;;;8.18;5.57;;;31.50;87.90;;;;;;5015130;28;20231;-92
2022/06/20 13:06:57;;;;;;;10.20;5.80;;;31.20;87.30;;;;;;5015996;28;20214;-93
2022/06/20 13:09:55;;;;;;;20.00;5.60;;;30.50;87.20;;;;;;5016398;28;20250;-91
2022/06/20 13:12:36;;;;;;;6.63;4.72;;;30.30;89.30;;;;;;4996218;28;20318;-91
2022/06/20 13:15:29;;;;;;;6.05;4.65;;;30.50;88.20;;;;;;4999291;28;20230;-91
2022/06/20 13:18:26;;;;;;;5.57;4.90;;;30.80;88.40;;;;;;5005899;28;20267;-91
2022/06/20 13:21:01;;;;;;;5.32;4.63;;;31.20;87.60;;;;;;4974606;28;20231;-92
2022/06/20 13:23:47;;;;;;;11.50;4.53;;;31.30;86.00;;;;;;5001563;28;20203;-92
2022/06/20 13:26:29;;;;;;;5.20;4.50;;;31.60;84.80;;;;;;5006734;28;20230;-91
2022/06/20 13:29:04;;;;;;;5.60;4.47;;;31.80;85.80;;;;;;5003558;28;20223;-91
2022/06/20 13:31:36;;;;;;;8.85;5.60;;;32.10;84.50;;;;;;4996237;28;20219;-91
2022/06/20 13:34:13;;;;;;;7.00;5.35;;;32.10;83.50;;;;;;5002091;28;20199;-92
2022/06/20 13:36:58;;;;;;;5.55;4.30;;;32.00;84.60;;;;;;5017916;28;20302;-92
2022/06/20 13:39:35;;;;;;;15.15;5.88;;;32.00;84.10;;;;;;5017121;28;20227;-92
2022/06/20 13:42:16;;;;;;;9.43;5.03;;;32.00;84.00;;;;;;5017640;28;20222;-91
2022/06/20 13:44:50;;;;;;;13.48;5.07;;;32.00;84.50;;;;;;5015330;28;20234;-91
2022/06/20 13:47:24;;;;;;;7.22;5.03;;;32.00;83.70;;;;;;5017900;28;20234;-92
2022/06/20 13:50:15;;;;;;;6.30;5.07;;;31.80;83.20;;;;;;5016287;28;20223;-93
2022/06/20 13:52:54;;;;;;;5.80;5.07;;;31.60;84.10;;;;;;5015863;28;20201;-94
2022/06/20 13:55:29;;;;;;;4.55;4.15;;;31.70;83.60;;;;;;5015146;28;20215;-91
2022/06/20 13:58:04;;;;;;;5.55;4.82;;;31.70;83.50;;;;;;5016404;28;20222;-91
2022/06/20 14:00:35;;;;;;;16.88;4.30;;;31.80;82.80;;;;;;5016160;28;20227;-91
2022/06/20 14:03:26;;;;;;;8.48;4.70;;;31.70;82.20;;;;;;5013970;28;20199;-91
2022/06/20 14:06:09;;;;;;;7.97;4.53;;;31.80;82.30;;;;;;5015074;28;20192;-91
2022/06/20 14:08:44;;;;;;;4.53;3.83;;;32.00;82.40;;;;;;5010962;28;20216;-91
2022/06/20 14:11:30;;;;;;;7.45;4.00;;;32.20;82.60;;;;;;5001051;28;20297;-91
2022/06/20 14:13:59;;;;;;;6.03;4.53;;;32.40;80.50;;;;;;5015404;28;20218;-91
2022/06/20 14:16:32;;;;;;;8.02;4.28;;;32.40;80.50;;;;;;5015363;28;20242;-91
2022/06/20 14:19:05;;;;;;;7.95;4.13;;;32.30;80.30;;;;;;5015229;28;20219;-91
2022/06/20 14:21:36;;;;;;;5.20;4.10;;;32.30;79.60;;;;;;5015346;28;20279;-91
2022/06/20 14:24:10;;;;;;;4.68;4.20;;;32.30;81.10;;;;;;5015615;28;20230;-91
2022/06/20 14:26:39;;;;;;;5.05;4.35;;;31.90;80.40;;;;;;5015243;28;20262;-91
2022/06/20 14:29:16;;;;;;;5.40;3.38;;;32.00;80.70;;;;;;5015233;28;20306;-91
2022/06/20 14:31:54;;;;;;;5.75;3.33;;;31.60;80.00;;;;;;5015440;28;20230;-91
2022/06/20 14:34:26;;;;;;;8.57;3.90;;;31.50;79.40;;;;;;5015401;28;20241;-91
2022/06/20 14:37:01;;;;;;;3.30;3.00;;;31.30;79.70;;;;;;5015323;28;20206;-91